Terminal Aerodrome Forecast
Issued by NWS Hastings, NE

Home | Current Version | Previous Version | Text Only | Print | Product List | Glossary On
Versions: 1 2 3 4 5 6 7 8 9 10 11 12 13 14 15 16 17 18 19 20
000
FTUS43 KGID 312336
TAFGRI
TAF
KGRI 312336Z 0100/0124 07007KT P6SM SCT250
     FM010400 VRB03KT P6SM SKC
     FM010900 00000KT 5SM BR SKC
     FM011400 13008KT P6SM SKC=

USA.gov is the U.S. government's official web portal to all federal, state and local government web resources and services.